Time;durP1;ratioP1;P1;durP2;ratioP2;P2;SDS_P1;SDS_P2;PMS_P1;PMS_P2;Temp;Humidity;BMP_temperature;BMP_pressure;BME280_temperature;BME280_humidity;BME280_pressure;Samples;Min_cycle;Max_cycle;Signal;HPM_P1;HPM_P2
2022/06/25 00:00:12;;;;;;;0.10;0.10;;;;;;;;;;6170754;23;20012;-94
2022/06/25 00:02:38;;;;;;;0.10;0.10;;;;;;;;;;6170578;23;20433;-95
2022/06/25 00:07:50;;;;;;;0.10;0.10;;;;;;;;;;6199198;23;20094;-95
2022/06/25 00:10:16;;;;;;;0.10;0.10;;;;;;;;;;6170730;23;20437;-95
2022/06/25 00:12:42;;;;;;;0.10;0.10;;;;;;;;;;6170799;23;20016;-94
2022/06/25 00:15:09;;;;;;;0.10;0.10;;;;;;;;;;6170590;23;20455;-96
2022/06/25 00:17:34;;;;;;;0.10;0.10;;;;;;;;;;6170722;23;20012;-94
2022/06/25 00:20:02;;;;;;;0.10;0.10;;;;;;;;;;6195231;23;20011;-94
2022/06/25 00:22:28;;;;;;;0.10;0.10;;;;;;;;;;6170425;23;20031;-94
2022/06/25 00:24:55;;;;;;;0.10;0.10;;;;;;;;;;6170729;23;20044;-94
2022/06/25 00:27:21;;;;;;;0.10;0.10;;;;;;;;;;6195137;23;20023;-94
2022/06/25 00:29:47;;;;;;;0.10;0.10;;;;;;;;;;6170388;23;20012;-94
2022/06/25 00:32:13;;;;;;;0.10;0.10;;;;;;;;;;6170507;23;20438;-94
2022/06/25 00:34:39;;;;;;;0.10;0.10;;;;;;;;;;6169927;23;20012;-95
2022/06/25 00:37:05;;;;;;;0.10;0.10;;;;;;;;;;6170605;23;20012;-94
2022/06/25 00:39:31;;;;;;;0.10;0.10;;;;;;;;;;6169907;23;20119;-94
2022/06/25 00:41:57;;;;;;;0.10;0.10;;;;;;;;;;6170535;23;20439;-95
2022/06/25 00:44:23;;;;;;;0.10;0.10;;;;;;;;;;6170588;23;20072;-95
2022/06/25 00:46:50;;;;;;;0.10;0.10;;;;;;;;;;6169983;23;20170;-95
2022/06/25 00:49:16;;;;;;;0.10;0.10;;;;;;;;;;6194889;23;20024;-96
2022/06/25 00:51:42;;;;;;;0.10;0.10;;;;;;;;;;6170036;23;20067;-94
2022/06/25 00:54:09;;;;;;;0.10;0.10;;;;;;;;;;6170328;23;20012;-94
2022/06/25 00:56:36;;;;;;;0.10;0.10;;;;;;;;;;6170327;23;20008;-94
2022/06/25 00:59:03;;;;;;;0.10;0.10;;;;;;;;;;6170160;23;20213;-93
2022/06/25 01:01:30;;;;;;;0.10;0.10;;;;;;;;;;6170274;23;20145;-94
2022/06/25 01:03:58;;;;;;;0.10;0.10;;;;;;;;;;6170273;23;20042;-93
2022/06/25 01:06:24;;;;;;;0.10;0.10;;;;;;;;;;6170596;23;20013;-94
2022/06/25 01:08:50;;;;;;;0.20;0.20;;;;;;;;;;6169770;23;20016;-95
2022/06/25 01:11:16;;;;;;;0.10;0.10;;;;;;;;;;6169958;23;20016;-94
2022/06/25 01:13:42;;;;;;;0.10;0.10;;;;;;;;;;6169872;23;20095;-96
2022/06/25 01:16:08;;;;;;;0.10;0.10;;;;;;;;;;6170482;23;20013;-94
2022/06/25 01:18:34;;;;;;;0.10;0.10;;;;;;;;;;6169889;23;20010;-94
2022/06/25 01:21:00;;;;;;;0.10;0.10;;;;;;;;;;6170214;22;20310;-95
2022/06/25 01:23:26;;;;;;;0.10;0.10;;;;;;;;;;6171703;23;20108;-93
2022/06/25 01:25:53;;;;;;;0.10;0.10;;;;;;;;;;6172302;23;20062;-93
2022/06/25 01:28:19;;;;;;;0.68;0.68;;;;;;;;;;6197613;23;20522;-93
2022/06/25 01:30:45;;;;;;;0.10;0.10;;;;;;;;;;6172604;23;20016;-93
2022/06/25 01:33:11;;;;;;;0.10;0.10;;;;;;;;;;6170700;23;20016;-95
2022/06/25 01:35:37;;;;;;;0.10;0.10;;;;;;;;;;6170823;23;20091;-94
2022/06/25 01:38:04;;;;;;;0.10;0.10;;;;;;;;;;6170281;23;20012;-94
2022/06/25 01:40:31;;;;;;;0.40;0.28;;;;;;;;;;6194652;23;20012;-94
2022/06/25 01:43:00;;;;;;;0.10;0.10;;;;;;;;;;6169917;23;20441;-95
2022/06/25 01:45:34;;;;;;;0.10;0.10;;;;;;;;;;6170089;23;20531;-94
2022/06/25 01:48:00;;;;;;;0.10;0.10;;;;;;;;;;6194198;23;20090;-95
2022/06/25 01:50:26;;;;;;;0.10;0.10;;;;;;;;;;6169707;23;20456;-94
2022/06/25 01:52:52;;;;;;;0.10;0.10;;;;;;;;;;6169662;23;20012;-93
2022/06/25 01:55:18;;;;;;;0.10;0.10;;;;;;;;;;6170068;23;20051;-94
2022/06/25 01:57:44;;;;;;;0.10;0.10;;;;;;;;;;6169589;23;20012;-95
2022/06/25 02:00:13;;;;;;;0.10;0.10;;;;;;;;;;6169585;23;20434;-96
2022/06/25 02:02:39;;;;;;;0.10;0.10;;;;;;;;;;6219120;23;20059;-94
2022/06/25 02:05:06;;;;;;;0.10;0.10;;;;;;;;;;6169509;23;20023;-95
2022/06/25 02:07:32;;;;;;;0.10;0.10;;;;;;;;;;6169267;23;20512;-94
2022/06/25 02:09:58;;;;;;;0.10;0.10;;;;;;;;;;6169463;23;20016;-95
2022/06/25 02:12:24;;;;;;;0.10;0.10;;;;;;;;;;6169231;23;20066;-94
2022/06/25 02:14:50;;;;;;;0.10;0.10;;;;;;;;;;6193849;23;20016;-94
2022/06/25 02:17:16;;;;;;;0.10;0.10;;;;;;;;;;6169627;23;20035;-93
2022/06/25 02:19:42;;;;;;;0.10;0.10;;;;;;;;;;6169504;23;20008;-94
2022/06/25 02:22:14;;;;;;;0.10;0.10;;;;;;;;;;6168906;23;20012;-94
2022/06/25 02:24:40;;;;;;;0.10;0.10;;;;;;;;;;6169925;23;20012;-94
2022/06/25 02:27:06;;;;;;;0.38;0.38;;;;;;;;;;6169428;23;20020;-93
2022/06/25 02:29:32;;;;;;;0.20;0.20;;;;;;;;;;6194277;23;20315;-94
2022/06/25 02:31:59;;;;;;;0.10;0.10;;;;;;;;;;6169024;23;20012;-94
2022/06/25 02:34:25;;;;;;;0.10;0.10;;;;;;;;;;6169499;23;20027;-95
2022/06/25 02:36:51;;;;;;;0.10;0.10;;;;;;;;;;6169398;23;20043;-95
2022/06/25 02:39:17;;;;;;;0.20;0.20;;;;;;;;;;6169444;23;20410;-93
2022/06/25 02:41:46;;;;;;;0.10;0.10;;;;;;;;;;6194048;23;20012;-94
2022/06/25 02:44:12;;;;;;;0.10;0.10;;;;;;;;;;6169579;23;20016;-94
2022/06/25 02:46:38;;;;;;;0.20;0.20;;;;;;;;;;6169188;23;20019;-95
2022/06/25 02:49:04;;;;;;;0.10;0.10;;;;;;;;;;6158767;23;20039;-94
2022/06/25 02:51:30;;;;;;;0.10;0.10;;;;;;;;;;6158652;23;20013;-95
2022/06/25 02:53:56;;;;;;;0.10;0.10;;;;;;;;;;6159045;23;20021;-96
2022/06/25 02:59:07;;;;;;;0.10;0.10;;;;;;;;;;6162632;23;20083;-94
2022/06/25 03:01:33;;;;;;;0.10;0.10;;;;;;;;;;6158972;23;20019;-93
2022/06/25 03:03:59;;;;;;;0.10;0.10;;;;;;;;;;6158988;23;20350;-94
2022/06/25 03:06:26;;;;;;;0.20;0.20;;;;;;;;;;6160582;23;20016;-93
2022/06/25 03:08:52;;;;;;;0.10;0.10;;;;;;;;;;6161043;23;20024;-94
2022/06/25 03:11:18;;;;;;;0.10;0.10;;;;;;;;;;6161196;23;20063;-94
2022/06/25 03:13:44;;;;;;;0.75;0.17;;;;;;;;;;6161024;23;20023;-94
2022/06/25 03:16:11;;;;;;;0.10;0.10;;;;;;;;;;6161081;23;20525;-93
2022/06/25 03:18:37;;;;;;;0.10;0.10;;;;;;;;;;6161118;23;20013;-95
2022/06/25 03:21:05;;;;;;;0.10;0.10;;;;;;;;;;6160871;23;20013;-93
2022/06/25 03:23:31;;;;;;;0.10;0.10;;;;;;;;;;6160738;23;20266;-94
2022/06/25 03:25:58;;;;;;;0.20;0.20;;;;;;;;;;6161058;23;20226;-94
2022/06/25 03:28:24;;;;;;;0.10;0.10;;;;;;;;;;6161058;23;20028;-95
2022/06/25 03:30:50;;;;;;;0.10;0.10;;;;;;;;;;6161120;23;20017;-95
2022/06/25 03:33:16;;;;;;;0.10;0.10;;;;;;;;;;6161074;23;20311;-94
2022/06/25 03:35:42;;;;;;;0.10;0.10;;;;;;;;;;6161006;23;20013;-94
2022/06/25 03:38:08;;;;;;;0.20;0.20;;;;;;;;;;6185807;23;20062;-95
2022/06/25 03:40:34;;;;;;;0.20;0.20;;;;;;;;;;6160694;23;20013;-95
2022/06/25 03:43:00;;;;;;;0.10;0.10;;;;;;;;;;6160572;23;20063;-95
2022/06/25 03:45:26;;;;;;;0.10;0.10;;;;;;;;;;6160851;23;20017;-96
2022/06/25 03:47:52;;;;;;;0.10;0.10;;;;;;;;;;6160769;23;20013;-95
2022/06/25 03:50:18;;;;;;;0.10;0.10;;;;;;;;;;6160327;23;20021;-95
2022/06/25 03:52:45;;;;;;;0.10;0.10;;;;;;;;;;6160318;23;20208;-96
2022/06/25 03:55:12;;;;;;;0.10;0.10;;;;;;;;;;6160656;23;20316;-95
2022/06/25 03:57:38;;;;;;;0.10;0.10;;;;;;;;;;6160173;23;20059;-95
2022/06/25 04:00:05;;;;;;;0.10;0.10;;;;;;;;;;6160673;23;20013;-94
2022/06/25 04:02:31;;;;;;;0.10;0.10;;;;;;;;;;6160407;23;20051;-96
2022/06/25 04:04:57;;;;;;;0.10;0.10;;;;;;;;;;6160501;23;20017;-95
2022/06/25 04:07:23;;;;;;;0.10;0.10;;;;;;;;;;6160623;23;20013;-96
2022/06/25 04:09:50;;;;;;;0.10;0.10;;;;;;;;;;6160458;23;20019;-95
2022/06/25 04:12:16;;;;;;;0.10;0.10;;;;;;;;;;6160313;23;20021;-95
2022/06/25 04:14:42;;;;;;;0.10;0.10;;;;;;;;;;6160464;23;20017;-95
2022/06/25 04:17:08;;;;;;;0.10;0.10;;;;;;;;;;6160568;23;20335;-94
2022/06/25 04:19:39;;;;;;;0.10;0.10;;;;;;;;;;6160448;23;20451;-94
2022/06/25 04:22:15;;;;;;;0.10;0.10;;;;;;;;;;6161641;23;20019;-93
2022/06/25 04:24:42;;;;;;;0.10;0.10;;;;;;;;;;6160520;23;20017;-94
2022/06/25 04:29:03;;;;;;;0.20;0.20;;;;;;;;;;6160174;23;20477;-94
2022/06/25 04:29:57;;;;;;;0.30;0.30;;;;;;;;;;6164761;23;20465;-95
2022/06/25 04:32:23;;;;;;;0.10;0.10;;;;;;;;;;6160096;23;20088;-95
2022/06/25 04:34:49;;;;;;;0.10;0.10;;;;;;;;;;6160221;23;20096;-95
2022/06/25 04:37:15;;;;;;;0.10;0.10;;;;;;;;;;6160304;23;20044;-95
2022/06/25 04:39:41;;;;;;;0.10;0.10;;;;;;;;;;6160372;23;20020;-95
2022/06/25 04:42:07;;;;;;;0.30;0.30;;;;;;;;;;6160085;23;20017;-95
2022/06/25 04:44:33;;;;;;;0.10;0.10;;;;;;;;;;6160637;23;20075;-94
2022/06/25 04:46:59;;;;;;;0.38;0.20;;;;;;;;;;6160162;23;20048;-96
2022/06/25 04:49:25;;;;;;;0.10;0.10;;;;;;;;;;6159891;23;20044;-94
2022/06/25 04:51:51;;;;;;;0.20;0.20;;;;;;;;;;6160072;23;20059;-94
2022/06/25 04:54:17;;;;;;;0.10;0.10;;;;;;;;;;6159757;23;20013;-95
2022/06/25 04:56:43;;;;;;;0.10;0.10;;;;;;;;;;6160016;23;20331;-95
2022/06/25 04:59:09;;;;;;;0.10;0.10;;;;;;;;;;6160194;23;20016;-94
2022/06/25 05:01:35;;;;;;;0.10;0.10;;;;;;;;;;6159901;23;20070;-95
2022/06/25 05:04:01;;;;;;;0.10;0.10;;;;;;;;;;6159878;23;20013;-95
2022/06/25 05:06:27;;;;;;;0.10;0.10;;;;;;;;;;6161433;23;20460;-96
2022/06/25 05:08:53;;;;;;;0.10;0.10;;;;;;;;;;6160251;23;20052;-95
2022/06/25 05:11:19;;;;;;;0.10;0.10;;;;;;;;;;6160132;23;20024;-96
2022/06/25 05:13:45;;;;;;;0.30;0.20;;;;;;;;;;6159756;23;20024;-96
2022/06/25 05:16:11;;;;;;;0.10;0.10;;;;;;;;;;6160144;23;20013;-93
2022/06/25 05:18:38;;;;;;;0.20;0.20;;;;;;;;;;6160010;23;20522;-94
2022/06/25 05:21:04;;;;;;;0.10;0.10;;;;;;;;;;6159804;23;20009;-93
2022/06/25 05:23:30;;;;;;;0.10;0.10;;;;;;;;;;6159720;23;20557;-93
2022/06/25 05:25:56;;;;;;;0.10;0.10;;;;;;;;;;6163393;23;20013;-94
2022/06/25 05:28:22;;;;;;;0.10;0.10;;;;;;;;;;6159829;23;20023;-94
2022/06/25 05:30:53;;;;;;;0.20;0.20;;;;;;;;;;6188626;23;20017;-94
2022/06/25 05:33:19;;;;;;;0.10;0.10;;;;;;;;;;6160862;23;20013;-96
2022/06/25 05:35:45;;;;;;;0.10;0.10;;;;;;;;;;6160034;23;20083;-96
2022/06/25 05:38:11;;;;;;;0.10;0.10;;;;;;;;;;6160700;23;20012;-94
2022/06/25 05:40:37;;;;;;;0.10;0.10;;;;;;;;;;6161115;23;20016;-93
2022/06/25 05:43:03;;;;;;;0.17;0.17;;;;;;;;;;6162532;23;20088;-92
2022/06/25 05:45:29;;;;;;;0.20;0.20;;;;;;;;;;6161692;23;20473;-94
2022/06/25 05:47:55;;;;;;;0.10;0.10;;;;;;;;;;6160140;23;20044;-94
2022/06/25 05:50:22;;;;;;;0.10;0.10;;;;;;;;;;6135760;23;20025;-94
2022/06/25 05:52:48;;;;;;;0.20;0.20;;;;;;;;;;6158811;23;20073;-93
2022/06/25 05:55:15;;;;;;;0.10;0.10;;;;;;;;;;6134831;23;20014;-93
2022/06/25 05:57:41;;;;;;;0.13;0.13;;;;;;;;;;6134900;23;20020;-94
2022/06/25 06:00:11;;;;;;;0.10;0.10;;;;;;;;;;6134915;23;20009;-93
2022/06/25 06:02:38;;;;;;;0.10;0.10;;;;;;;;;;6135524;23;20017;-94
2022/06/25 06:05:05;;;;;;;0.20;0.20;;;;;;;;;;6159026;23;20024;-93
2022/06/25 06:07:31;;;;;;;0.10;0.10;;;;;;;;;;6134956;23;20176;-94
2022/06/25 06:09:58;;;;;;;0.10;0.10;;;;;;;;;;6135017;23;20258;-94
2022/06/25 06:12:25;;;;;;;0.10;0.10;;;;;;;;;;6134836;23;20017;-93
2022/06/25 06:14:51;;;;;;;0.10;0.10;;;;;;;;;;6134768;23;20013;-95
2022/06/25 06:17:17;;;;;;;0.30;0.30;;;;;;;;;;6135138;23;20013;-95
2022/06/25 06:19:43;;;;;;;0.10;0.10;;;;;;;;;;6134624;23;20044;-94
2022/06/25 06:22:09;;;;;;;0.10;0.10;;;;;;;;;;6134146;23;20012;-93
2022/06/25 06:24:35;;;;;;;0.10;0.10;;;;;;;;;;6134957;23;20312;-94
2022/06/25 06:27:11;;;;;;;0.10;0.10;;;;;;;;;;6135978;23;20082;-93
2022/06/25 06:29:37;;;;;;;0.10;0.10;;;;;;;;;;6136078;23;20035;-94
2022/06/25 06:32:04;;;;;;;0.20;0.20;;;;;;;;;;6135284;23;20105;-93
2022/06/25 06:34:30;;;;;;;0.10;0.10;;;;;;;;;;6134768;23;20053;-94
2022/06/25 06:36:56;;;;;;;0.10;0.10;;;;;;;;;;6135028;23;20024;-95
2022/06/25 06:39:22;;;;;;;0.10;0.10;;;;;;;;;;6134664;23;20013;-95
2022/06/25 06:41:48;;;;;;;0.50;0.50;;;;;;;;;;6134463;23;20063;-95
2022/06/25 06:44:14;;;;;;;0.10;0.10;;;;;;;;;;6134770;23;20064;-95
2022/06/25 06:46:40;;;;;;;0.17;0.17;;;;;;;;;;6134464;23;20017;-94
2022/06/25 06:49:07;;;;;;;0.40;0.40;;;;;;;;;;6134060;23;20443;-95
2022/06/25 06:51:33;;;;;;;0.10;0.10;;;;;;;;;;6134143;23;20017;-93
2022/06/25 06:53:59;;;;;;;0.10;0.10;;;;;;;;;;6134432;23;20084;-94
2022/06/25 06:56:25;;;;;;;0.20;0.20;;;;;;;;;;6134404;23;20012;-94
2022/06/25 06:58:51;;;;;;;0.20;0.20;;;;;;;;;;6134817;23;20264;-94
2022/06/25 07:01:17;;;;;;;0.10;0.10;;;;;;;;;;6134494;23;20009;-95
2022/06/25 07:03:43;;;;;;;0.10;0.10;;;;;;;;;;6134145;23;20111;-94
2022/06/25 07:06:09;;;;;;;0.10;0.10;;;;;;;;;;6134943;23;20013;-95
2022/06/25 07:08:35;;;;;;;0.10;0.10;;;;;;;;;;6134630;23;20083;-94
2022/06/25 07:11:01;;;;;;;0.10;0.10;;;;;;;;;;6136849;23;20024;-94
2022/06/25 07:13:27;;;;;;;0.10;0.10;;;;;;;;;;6135589;23;20013;-94
2022/06/25 07:15:53;;;;;;;0.20;0.20;;;;;;;;;;6135044;23;20378;-95
2022/06/25 07:18:19;;;;;;;0.10;0.10;;;;;;;;;;6134626;23;20017;-94
2022/06/25 07:20:45;;;;;;;0.15;0.15;;;;;;;;;;6134714;23;20009;-95
2022/06/25 07:23:11;;;;;;;0.17;0.17;;;;;;;;;;6134596;23;20059;-95
2022/06/25 07:25:37;;;;;;;0.20;0.20;;;;;;;;;;6134362;23;20071;-95
2022/06/25 07:28:03;;;;;;;0.15;0.15;;;;;;;;;;6134528;23;20017;-95
2022/06/25 07:30:29;;;;;;;0.20;0.20;;;;;;;;;;6134452;23;20013;-95
2022/06/25 07:32:55;;;;;;;0.40;0.40;;;;;;;;;;6134287;23;20067;-94
2022/06/25 07:35:22;;;;;;;0.20;0.20;;;;;;;;;;6134329;23;20017;-94
2022/06/25 07:37:48;;;;;;;0.20;0.20;;;;;;;;;;6134493;23;20043;-95
2022/06/25 07:40:14;;;;;;;0.20;0.20;;;;;;;;;;6134346;23;20043;-95
2022/06/25 07:42:40;;;;;;;0.20;0.20;;;;;;;;;;6134450;23;20013;-95
2022/06/25 07:45:06;;;;;;;0.20;0.20;;;;;;;;;;6134319;23;20447;-94
2022/06/25 07:47:38;;;;;;;0.20;0.20;;;;;;;;;;6134615;23;20068;-95
2022/06/25 07:52:49;;;;;;;0.17;0.17;;;;;;;;;;6198742;23;20074;-95
2022/06/25 07:55:15;;;;;;;0.20;0.20;;;;;;;;;;6170639;23;20012;-94
2022/06/25 07:57:42;;;;;;;0.20;0.20;;;;;;;;;;6170787;23;20012;-94
2022/06/25 08:00:08;;;;;;;0.20;0.20;;;;;;;;;;6170824;23;20008;-94
2022/06/25 08:02:34;;;;;;;0.20;0.20;;;;;;;;;;6171044;23;20093;-95
2022/06/25 08:05:00;;;;;;;0.20;0.20;;;;;;;;;;6171047;23;20016;-94
2022/06/25 08:07:26;;;;;;;0.20;0.20;;;;;;;;;;6170886;23;20016;-94
2022/06/25 08:09:55;;;;;;;0.13;0.13;;;;;;;;;;6170840;23;20047;-95
2022/06/25 08:12:21;;;;;;;0.20;0.20;;;;;;;;;;6170637;23;20047;-94
2022/06/25 08:14:53;;;;;;;0.20;0.20;;;;;;;;;;6170174;23;20464;-95
2022/06/25 08:17:20;;;;;;;0.20;0.20;;;;;;;;;;6170751;23;20478;-96
2022/06/25 08:19:46;;;;;;;0.20;0.20;;;;;;;;;;6171113;23;20023;-95
2022/06/25 08:22:12;;;;;;;0.20;0.20;;;;;;;;;;6170874;23;20019;-94
2022/06/25 08:24:38;;;;;;;0.20;0.20;;;;;;;;;;6170333;23;20016;-94
2022/06/25 08:27:04;;;;;;;0.20;0.20;;;;;;;;;;6170320;23;20012;-95
2022/06/25 08:29:30;;;;;;;0.20;0.20;;;;;;;;;;6170022;23;20016;-94
2022/06/25 08:31:56;;;;;;;0.20;0.20;;;;;;;;;;6170637;23;20395;-95
2022/06/25 08:34:22;;;;;;;2.05;0.60;;;;;;;;;;6170442;23;20048;-95
2022/06/25 08:36:48;;;;;;;0.20;0.20;;;;;;;;;;6170050;23;20019;-94
2022/06/25 08:39:16;;;;;;;0.20;0.20;;;;;;;;;;6170130;23;20095;-95
2022/06/25 08:41:42;;;;;;;0.20;0.20;;;;;;;;;;6169596;23;20047;-94
2022/06/25 08:44:08;;;;;;;0.20;0.20;;;;;;;;;;6170397;23;20016;-95
2022/06/25 08:46:34;;;;;;;0.20;0.20;;;;;;;;;;6170775;23;20445;-94
2022/06/25 08:49:00;;;;;;;0.20;0.20;;;;;;;;;;6170868;23;20044;-94
2022/06/25 08:51:29;;;;;;;0.20;0.20;;;;;;;;;;6171085;23;20020;-93
2022/06/25 08:53:55;;;;;;;0.20;0.20;;;;;;;;;;6172850;23;20020;-94
2022/06/25 08:56:21;;;;;;;0.20;0.20;;;;;;;;;;6173432;23;20450;-92
2022/06/25 08:58:50;;;;;;;0.25;0.25;;;;;;;;;;6174111;23;20008;-92
2022/06/25 09:01:16;;;;;;;0.20;0.20;;;;;;;;;;6170820;23;20019;-93
2022/06/25 09:03:43;;;;;;;0.17;0.17;;;;;;;;;;6168991;23;20513;-93
2022/06/25 09:06:13;;;;;;;0.10;0.10;;;;;;;;;;6169472;23;20135;-95
2022/06/25 09:08:39;;;;;;;0.20;0.20;;;;;;;;;;6170201;23;20062;-94
2022/06/25 09:11:05;;;;;;;0.20;0.20;;;;;;;;;;6169188;22;20493;-95
2022/06/25 09:13:31;;;;;;;0.20;0.20;;;;;;;;;;6169483;23;20012;-93
2022/06/25 09:15:57;;;;;;;0.20;0.20;;;;;;;;;;6170025;23;20015;-94
2022/06/25 09:18:23;;;;;;;0.20;0.20;;;;;;;;;;6169990;23;20143;-95
2022/06/25 09:20:59;;;;;;;0.20;0.20;;;;;;;;;;6169608;22;20018;-95
2022/06/25 09:23:26;;;;;;;0.20;0.20;;;;;;;;;;6169533;23;20019;-94
2022/06/25 09:26:03;;;;;;;0.20;0.20;;;;;;;;;;6170014;23;20014;-93
2022/06/25 09:28:47;;;;;;;0.30;0.30;;;;;;;;;;6170146;23;20497;-94
2022/06/25 09:31:13;;;;;;;0.20;0.20;;;;;;;;;;6169917;23;20171;-94
2022/06/25 09:33:39;;;;;;;0.20;0.20;;;;;;;;;;6169415;23;20008;-93
2022/06/25 09:36:09;;;;;;;0.20;0.20;;;;;;;;;;6169888;23;20012;-93
2022/06/25 09:38:56;;;;;;;0.20;0.20;;;;;;;;;;6171907;23;20012;-93
2022/06/25 09:41:26;;;;;;;0.20;0.20;;;;;;;;;;6201434;23;20015;-92
2022/06/25 09:43:52;;;;;;;0.20;0.20;;;;;;;;;;6170597;23;20100;-94
2022/06/25 09:46:18;;;;;;;0.20;0.20;;;;;;;;;;6173316;23;20039;-94
2022/06/25 09:48:44;;;;;;;0.20;0.20;;;;;;;;;;6197008;23;20027;-96
2022/06/25 09:51:14;;;;;;;0.20;0.20;;;;;;;;;;6169877;23;20067;-94
2022/06/25 09:53:53;;;;;;;0.20;0.20;;;;;;;;;;6170407;23;20020;-94
2022/06/25 09:56:23;;;;;;;0.10;0.10;;;;;;;;;;6169269;23;20008;-93
2022/06/25 09:58:49;;;;;;;0.20;0.20;;;;;;;;;;6170753;23;20086;-94
2022/06/25 10:01:20;;;;;;;0.15;0.15;;;;;;;;;;6171081;23;20095;-93
2022/06/25 10:03:48;;;;;;;0.20;0.20;;;;;;;;;;6195101;23;20035;-93
2022/06/25 10:06:14;;;;;;;0.20;0.20;;;;;;;;;;6199981;23;20016;-94
2022/06/25 10:08:41;;;;;;;0.10;0.10;;;;;;;;;;6171548;23;20018;-93
2022/06/25 10:11:07;;;;;;;0.20;0.20;;;;;;;;;;6195341;22;20019;-93
2022/06/25 10:13:33;;;;;;;0.20;0.20;;;;;;;;;;6194548;23;20449;-93
2022/06/25 10:15:59;;;;;;;0.17;0.17;;;;;;;;;;6169233;23;20095;-93
2022/06/25 10:18:25;;;;;;;0.10;0.10;;;;;;;;;;6169881;23;20066;-93
2022/06/25 10:20:51;;;;;;;0.10;0.10;;;;;;;;;;6169478;22;20333;-93
2022/06/25 10:23:18;;;;;;;0.20;0.20;;;;;;;;;;6169406;23;20020;-93
2022/06/25 10:25:44;;;;;;;0.20;0.20;;;;;;;;;;6169801;23;20091;-93
2022/06/25 10:28:11;;;;;;;0.20;0.20;;;;;;;;;;6169375;23;20012;-94
2022/06/25 10:30:45;;;;;;;0.20;0.20;;;;;;;;;;6169799;23;20031;-94
2022/06/25 10:33:11;;;;;;;0.20;0.20;;;;;;;;;;6169189;23;20441;-93
2022/06/25 10:35:39;;;;;;;0.40;0.40;;;;;;;;;;6169190;23;20019;-93
2022/06/25 10:38:11;;;;;;;0.20;0.20;;;;;;;;;;6170561;23;20043;-93
2022/06/25 10:40:58;;;;;;;0.20;0.20;;;;;;;;;;6169607;23;20008;-94
2022/06/25 10:43:33;;;;;;;0.20;0.20;;;;;;;;;;6193075;23;20030;-93
2022/06/25 10:45:59;;;;;;;0.20;0.20;;;;;;;;;;6193734;23;20012;-94
2022/06/25 10:48:26;;;;;;;0.20;0.20;;;;;;;;;;6168750;23;20054;-93
2022/06/25 10:50:52;;;;;;;0.10;0.10;;;;;;;;;;6169034;22;20052;-94
2022/06/25 10:53:20;;;;;;;0.20;0.20;;;;;;;;;;6193806;23;20044;-92
2022/06/25 10:55:49;;;;;;;0.20;0.20;;;;;;;;;;6169222;23;20020;-92
2022/06/25 10:58:16;;;;;;;0.20;0.20;;;;;;;;;;6193689;23;20012;-93
2022/06/25 11:00:46;;;;;;;0.20;0.20;;;;;;;;;;6169345;23;20004;-93
2022/06/25 11:03:12;;;;;;;0.20;0.20;;;;;;;;;;6169523;23;20031;-93
2022/06/25 11:05:42;;;;;;;0.15;0.15;;;;;;;;;;6168677;23;20016;-93
2022/06/25 11:08:08;;;;;;;0.20;0.20;;;;;;;;;;6168568;23;20016;-93
2022/06/25 11:10:35;;;;;;;0.20;0.20;;;;;;;;;;6168823;23;20091;-93
2022/06/25 11:13:01;;;;;;;0.20;0.20;;;;;;;;;;6192849;23;20027;-93
2022/06/25 11:15:27;;;;;;;0.20;0.20;;;;;;;;;;6168574;23;20020;-94
2022/06/25 11:17:53;;;;;;;0.30;0.30;;;;;;;;;;6168482;23;20016;-94
2022/06/25 11:20:22;;;;;;;0.20;0.20;;;;;;;;;;6168628;23;20023;-93
2022/06/25 11:22:49;;;;;;;0.20;0.20;;;;;;;;;;6193569;23;20012;-93
2022/06/25 11:30:49;;;;;;;0.20;0.20;;;;;;;;;;6199282;22;20338;-94
2022/06/25 11:33:15;;;;;;;0.20;0.20;;;;;;;;;;6171495;23;20016;-93
2022/06/25 11:35:43;;;;;;;0.20;0.20;;;;;;;;;;6170556;23;20012;-93
2022/06/25 11:38:15;;;;;;;0.10;0.10;;;;;;;;;;6171054;23;20012;-93
2022/06/25 11:40:41;;;;;;;0.20;0.20;;;;;;;;;;6170518;23;20019;-94
2022/06/25 11:43:08;;;;;;;0.20;0.20;;;;;;;;;;6170817;23;20012;-92
2022/06/25 11:45:34;;;;;;;0.10;0.10;;;;;;;;;;6170848;23;20019;-93
2022/06/25 11:48:01;;;;;;;0.20;0.20;;;;;;;;;;6169946;23;20047;-93
2022/06/25 11:50:27;;;;;;;0.20;0.20;;;;;;;;;;6170462;23;20472;-93
2022/06/25 11:52:53;;;;;;;0.10;0.10;;;;;;;;;;6170291;23;20016;-93
2022/06/25 11:55:20;;;;;;;0.20;0.20;;;;;;;;;;6170216;23;20016;-93
2022/06/25 11:57:46;;;;;;;0.15;0.15;;;;;;;;;;6170695;23;20099;-93
2022/06/25 12:00:14;;;;;;;0.20;0.20;;;;;;;;;;6170774;23;20012;-93
2022/06/25 12:02:41;;;;;;;0.20;0.20;;;;;;;;;;6194989;23;20008;-93
2022/06/25 12:05:07;;;;;;;0.20;0.20;;;;;;;;;;6170552;23;20309;-93
2022/06/25 12:07:34;;;;;;;0.10;0.10;;;;;;;;;;6170292;23;20091;-93
2022/06/25 12:10:00;;;;;;;0.20;0.20;;;;;;;;;;6170340;23;20125;-93
2022/06/25 12:12:28;;;;;;;0.20;0.20;;;;;;;;;;6170049;23;20102;-93
2022/06/25 12:14:54;;;;;;;0.10;0.10;;;;;;;;;;6170527;23;20095;-92
2022/06/25 12:17:20;;;;;;;0.45;0.45;;;;;;;;;;6170112;23;20062;-93
2022/06/25 12:19:47;;;;;;;0.10;0.10;;;;;;;;;;6170493;23;20016;-93
2022/06/25 12:22:19;;;;;;;0.10;0.10;;;;;;;;;;6194828;23;20012;-93
2022/06/25 12:24:48;;;;;;;0.20;0.20;;;;;;;;;;6195441;23;20091;-93
2022/06/25 12:27:14;;;;;;;0.20;0.20;;;;;;;;;;6170125;23;20095;-93
2022/06/25 12:29:40;;;;;;;0.20;0.20;;;;;;;;;;6170119;23;20039;-93
2022/06/25 12:32:06;;;;;;;0.20;0.20;;;;;;;;;;6170208;23;20405;-93
2022/06/25 12:34:32;;;;;;;0.10;0.10;;;;;;;;;;6170399;23;20473;-93
2022/06/25 12:36:59;;;;;;;0.20;0.20;;;;;;;;;;6170282;23;20031;-93
2022/06/25 12:39:35;;;;;;;0.10;0.10;;;;;;;;;;6195023;23;20092;-93
2022/06/25 12:42:04;;;;;;;0.10;0.10;;;;;;;;;;6169903;23;20008;-93
2022/06/25 12:44:31;;;;;;;0.20;0.20;;;;;;;;;;6169701;23;20345;-92
2022/06/25 12:47:00;;;;;;;0.10;0.10;;;;;;;;;;6169990;23;20543;-92
2022/06/25 12:49:27;;;;;;;0.20;0.20;;;;;;;;;;6170138;23;20530;-92
2022/06/25 12:51:53;;;;;;;0.10;0.10;;;;;;;;;;6170480;23;20020;-93
2022/06/25 12:54:19;;;;;;;0.10;0.10;;;;;;;;;;6170103;23;20467;-93
2022/06/25 12:56:51;;;;;;;0.15;0.15;;;;;;;;;;6169865;23;20315;-92
2022/06/25 12:59:17;;;;;;;0.10;0.10;;;;;;;;;;6170577;23;20062;-93
2022/06/25 13:01:43;;;;;;;0.20;0.20;;;;;;;;;;6169744;23;20087;-93
2022/06/25 13:04:09;;;;;;;0.10;0.10;;;;;;;;;;6169981;23;20016;-93
2022/06/25 13:06:35;;;;;;;0.20;0.20;;;;;;;;;;6170453;23;20008;-91
2022/06/25 13:09:01;;;;;;;0.10;0.10;;;;;;;;;;6170359;23;20226;-92
2022/06/25 13:11:27;;;;;;;0.20;0.20;;;;;;;;;;6169342;23;20016;-92
2022/06/25 13:13:53;;;;;;;0.10;0.10;;;;;;;;;;6170205;23;20016;-91
2022/06/25 13:16:19;;;;;;;0.10;0.10;;;;;;;;;;6170160;23;20015;-93
2022/06/25 13:18:45;;;;;;;0.20;0.20;;;;;;;;;;6169917;23;20008;-92
2022/06/25 13:21:12;;;;;;;0.10;0.10;;;;;;;;;;6169969;22;20012;-92
2022/06/25 13:23:38;;;;;;;0.20;0.20;;;;;;;;;;6169910;23;20433;-92
2022/06/25 13:26:04;;;;;;;0.10;0.10;;;;;;;;;;6169669;23;20066;-92
2022/06/25 13:28:31;;;;;;;0.10;0.10;;;;;;;;;;6169563;23;20299;-92
2022/06/25 13:30:57;;;;;;;0.20;0.20;;;;;;;;;;6170035;22;20019;-92
2022/06/25 13:33:23;;;;;;;0.20;0.20;;;;;;;;;;6169600;23;20446;-92
2022/06/25 13:35:49;;;;;;;0.20;0.20;;;;;;;;;;6170031;23;20019;-92
2022/06/25 13:38:15;;;;;;;0.22;0.22;;;;;;;;;;6169663;23;20066;-92
2022/06/25 13:40:41;;;;;;;0.10;0.10;;;;;;;;;;6169593;23;20008;-92
2022/06/25 13:43:07;;;;;;;0.20;0.20;;;;;;;;;;6169696;23;20391;-92
2022/06/25 13:45:33;;;;;;;0.20;0.20;;;;;;;;;;6169933;23;20452;-92
2022/06/25 13:47:59;;;;;;;0.20;0.20;;;;;;;;;;6169199;23;20012;-92
2022/06/25 13:50:25;;;;;;;0.20;0.20;;;;;;;;;;6169418;23;20016;-93
2022/06/25 13:52:51;;;;;;;0.20;0.20;;;;;;;;;;6169649;23;20379;-92
2022/06/25 13:55:17;;;;;;;0.20;0.20;;;;;;;;;;6169551;23;20460;-92
2022/06/25 13:57:44;;;;;;;0.10;0.10;;;;;;;;;;6169208;23;20039;-92
2022/06/25 14:00:10;;;;;;;0.10;0.10;;;;;;;;;;6169290;23;20087;-92
2022/06/25 14:02:36;;;;;;;0.10;0.10;;;;;;;;;;6169575;23;20020;-92
2022/06/25 14:05:02;;;;;;;0.20;0.20;;;;;;;;;;6169650;23;20318;-92
2022/06/25 14:07:28;;;;;;;0.10;0.10;;;;;;;;;;6169454;23;20066;-92
2022/06/25 14:09:57;;;;;;;0.10;0.10;;;;;;;;;;6169462;23;20015;-92
2022/06/25 14:12:23;;;;;;;0.20;0.20;;;;;;;;;;6169365;23;20015;-92
2022/06/25 14:14:49;;;;;;;0.10;0.10;;;;;;;;;;6169059;23;20012;-92
2022/06/25 14:17:15;;;;;;;0.10;0.10;;;;;;;;;;6169920;23;20038;-91
2022/06/25 14:19:41;;;;;;;0.10;0.10;;;;;;;;;;6169361;23;20019;-92
2022/06/25 14:22:08;;;;;;;0.10;0.10;;;;;;;;;;6169232;23;20012;-92
2022/06/25 14:27:20;;;;;;;0.20;0.20;;;;;;;;;;6140582;23;20087;-93
2022/06/25 14:29:46;;;;;;;0.17;0.17;;;;;;;;;;6168867;23;20022;-93
2022/06/25 14:32:12;;;;;;;0.10;0.10;;;;;;;;;;6169132;23;20091;-92
2022/06/25 14:34:38;;;;;;;0.10;0.10;;;;;;;;;;6169004;23;20047;-93
2022/06/25 14:42:33;;;;;;;0.20;0.20;;;;;;;;;;6197426;23;20074;-92
2022/06/25 14:44:59;;;;;;;0.20;0.20;;;;;;;;;;6168921;23;20012;-92
2022/06/25 14:47:26;;;;;;;0.20;0.20;;;;;;;;;;6169030;23;20437;-92
2022/06/25 14:49:52;;;;;;;0.20;0.20;;;;;;;;;;6169503;23;20337;-92
2022/06/25 14:52:18;;;;;;;0.10;0.10;;;;;;;;;;6169057;23;20468;-92
2022/06/25 14:54:44;;;;;;;0.10;0.10;;;;;;;;;;6168783;23;20341;-93
2022/06/25 14:57:10;;;;;;;0.10;0.10;;;;;;;;;;6169314;23;20433;-92
2022/06/25 14:59:37;;;;;;;0.35;0.35;;;;;;;;;;6168928;23;20406;-93
2022/06/25 15:02:03;;;;;;;0.10;0.10;;;;;;;;;;6168974;23;20008;-93